Time;durP1;ratioP1;P1;durP2;ratioP2;P2;SDS_P1;SDS_P2;PMS_P1;PMS_P2;Temp;Humidity;BMP_temperature;BMP_pressure;BME280_temperature;BME280_humidity;BME280_pressure;Samples;Min_cycle;Max_cycle;Signal;HPM_P1;HPM_P2
2023/05/26 00:00:18;;;;;;;81.17;2.67;;;17.50;42.20;;;;;;5036666;28;20180;-78
2023/05/26 00:02:45;;;;;;;81.33;3.07;;;17.50;42.10;;;;;;5036513;28;20241;-78
2023/05/26 00:05:13;;;;;;;81.20;2.63;;;17.50;42.70;;;;;;5038422;28;20162;-77
2023/05/26 00:07:39;;;;;;;81.00;2.40;;;17.50;42.60;;;;;;5038418;28;20402;-78
2023/05/26 00:10:07;;;;;;;81.57;2.93;;;17.50;42.50;;;;;;5038577;28;20411;-77
2023/05/26 00:12:32;;;;;;;82.70;3.30;;;17.40;43.00;;;;;;5037979;28;20786;-77
2023/05/26 00:14:58;;;;;;;81.23;2.53;;;17.40;43.10;;;;;;5037279;28;20415;-78
2023/05/26 00:17:25;;;;;;;81.37;2.63;;;17.30;44.00;;;;;;5038209;28;20184;-78
2023/05/26 00:19:52;;;;;;;81.23;2.17;;;17.40;43.50;;;;;;5058122;28;20202;-78
2023/05/26 00:22:18;;;;;;;81.10;2.33;;;17.30;44.80;;;;;;5057505;28;20434;-77
2023/05/26 00:24:47;;;;;;;84.47;2.60;;;17.40;43.60;;;;;;5057174;28;20909;-78
2023/05/26 00:27:13;;;;;;;81.67;2.87;;;17.40;43.70;;;;;;5044564;28;20459;-77
2023/05/26 00:29:39;;;;;;;81.00;2.40;;;17.40;43.20;;;;;;5037578;28;20806;-78
2023/05/26 00:32:05;;;;;;;82.00;2.90;;;17.50;43.60;;;;;;5035348;28;20454;-78
2023/05/26 00:34:30;;;;;;;81.73;2.57;;;17.40;43.90;;;;;;5035517;28;20188;-78
2023/05/26 00:36:56;;;;;;;82.20;2.80;;;17.40;43.90;;;;;;5056048;28;20503;-78
2023/05/26 00:39:21;;;;;;;81.77;2.63;;;17.30;44.50;;;;;;5055724;28;20195;-78
2023/05/26 00:41:48;;;;;;;81.70;2.60;;;17.30;43.70;;;;;;5055584;28;20196;-78
2023/05/26 00:44:14;;;;;;;81.47;2.60;;;17.50;42.60;;;;;;5054363;28;20658;-79
2023/05/26 00:46:40;;;;;;;80.80;2.13;;;17.50;42.90;;;;;;5056955;28;20422;-77
2023/05/26 00:49:06;;;;;;;81.90;2.70;;;17.30;43.20;;;;;;5057512;28;20418;-78
2023/05/26 00:51:32;;;;;;;83.53;3.40;;;17.40;43.10;;;;;;5055811;28;20218;-77
2023/05/26 00:53:59;;;;;;;81.30;2.43;;;17.30;44.00;;;;;;5037128;28;20174;-77
2023/05/26 00:56:27;;;;;;;81.40;2.40;;;17.20;44.00;;;;;;5037741;28;20415;-78
2023/05/26 00:58:54;;;;;;;81.30;2.20;;;17.00;44.30;;;;;;5037711;28;20466;-78
2023/05/26 01:01:19;;;;;;;81.50;2.30;;;17.10;43.90;;;;;;5037238;28;20450;-77
2023/05/26 01:03:46;;;;;;;81.47;2.40;;;17.20;44.10;;;;;;5037437;28;20460;-77
2023/05/26 01:06:11;;;;;;;81.20;2.20;;;17.10;44.40;;;;;;5038053;28;20212;-78
2023/05/26 01:08:37;;;;;;;81.77;2.63;;;17.20;43.40;;;;;;5037601;28;20419;-78
2023/05/26 01:11:32;;;;;;;81.90;2.50;;;17.10;43.90;;;;;;5037472;28;20175;-77
2023/05/26 01:14:03;;;;;;;81.47;2.17;;;17.10;44.00;;;;;;5035017;28;20217;-78
2023/05/26 01:16:36;;;;;;;81.77;2.50;;;17.20;44.50;;;;;;5036989;28;20392;-77
2023/05/26 01:19:34;;;;;;;82.00;2.43;;;17.30;44.10;;;;;;5037960;28;20427;-77
2023/05/26 01:22:20;;;;;;;82.00;2.50;;;17.30;43.70;;;;;;5037039;28;20446;-78
2023/05/26 01:25:31;;;;;;;82.40;2.80;;;17.30;44.00;;;;;;5035767;28;20432;-76
2023/05/26 01:28:14;;;;;;;82.70;3.17;;;17.20;44.60;;;;;;5023857;28;20520;-77
2023/05/26 01:30:41;;;;;;;82.30;2.40;;;17.20;43.90;;;;;;5031128;28;20437;-78
2023/05/26 01:33:07;;;;;;;86.70;2.70;;;17.20;44.90;;;;;;5030612;28;20447;-77
2023/05/26 01:35:33;;;;;;;82.20;2.80;;;17.30;43.90;;;;;;5031476;28;20412;-76
2023/05/26 01:38:00;;;;;;;82.27;2.63;;;17.40;44.10;;;;;;5031365;28;20554;-74
2023/05/26 01:40:27;;;;;;;81.90;2.20;;;17.40;43.90;;;;;;5031651;28;20182;-76
2023/05/26 01:43:02;;;;;;;81.90;2.20;;;17.30;44.10;;;;;;5031053;28;20486;-77
2023/05/26 01:45:38;;;;;;;86.13;3.27;;;17.30;43.80;;;;;;5031552;28;20444;-77
2023/05/26 01:48:06;;;;;;;83.70;3.40;;;17.20;44.50;;;;;;5031592;28;20410;-76
2023/05/26 01:50:44;;;;;;;82.30;2.67;;;17.30;43.90;;;;;;5031635;28;20419;-76
2023/05/26 01:53:12;;;;;;;82.60;2.40;;;17.20;44.60;;;;;;5030958;28;20448;-78
2023/05/26 01:55:38;;;;;;;82.67;2.43;;;17.20;44.00;;;;;;5031803;28;20547;-76
2023/05/26 01:58:05;;;;;;;83.50;3.07;;;17.30;43.50;;;;;;5041616;28;20508;-78
2023/05/26 02:00:31;;;;;;;82.70;2.70;;;17.20;43.20;;;;;;5041264;28;20514;-77
2023/05/26 02:02:56;;;;;;;82.57;2.47;;;17.10;44.40;;;;;;5030856;28;20574;-77
2023/05/26 02:05:22;;;;;;;83.37;2.60;;;17.20;44.30;;;;;;5031602;28;20196;-77
2023/05/26 02:07:48;;;;;;;82.93;2.43;;;17.20;44.30;;;;;;5032218;28;20176;-76
2023/05/26 02:10:13;;;;;;;83.20;2.50;;;17.10;43.80;;;;;;5033550;28;20185;-77
2023/05/26 02:12:39;;;;;;;83.60;3.43;;;17.10;44.40;;;;;;5033528;28;20280;-77
2023/05/26 02:15:05;;;;;;;83.20;2.90;;;17.10;43.90;;;;;;5047245;28;20700;-76
2023/05/26 02:17:31;;;;;;;82.93;2.63;;;17.20;42.70;;;;;;5053087;28;20182;-78
2023/05/26 02:19:57;;;;;;;83.10;2.53;;;17.30;43.40;;;;;;5050822;28;20504;-77
2023/05/26 02:22:23;;;;;;;83.10;2.83;;;17.20;43.10;;;;;;5050459;28;20203;-78
2023/05/26 02:24:48;;;;;;;82.37;2.10;;;16.80;44.80;;;;;;5050409;28;20553;-76
2023/05/26 02:27:15;;;;;;;82.93;2.70;;;16.80;44.50;;;;;;5050752;28;20181;-76
2023/05/26 02:29:41;;;;;;;82.90;2.63;;;16.80;45.20;;;;;;5050677;28;20169;-77
2023/05/26 02:32:06;;;;;;;83.10;2.57;;;16.70;45.90;;;;;;5035614;28;20986;-76
2023/05/26 02:34:32;;;;;;;84.10;2.90;;;16.70;45.60;;;;;;5030166;28;20287;-77
2023/05/26 02:36:57;;;;;;;82.77;2.47;;;16.70;45.60;;;;;;5030522;28;20177;-76
2023/05/26 02:39:24;;;;;;;84.10;2.83;;;16.60;45.60;;;;;;5034234;28;20180;-76
2023/05/26 02:41:49;;;;;;;84.00;3.00;;;16.60;44.20;;;;;;5034377;28;20195;-76
2023/05/26 02:44:15;;;;;;;83.83;2.60;;;16.70;44.40;;;;;;5033671;28;20960;-78
2023/05/26 02:46:41;;;;;;;83.43;2.40;;;16.60;44.90;;;;;;5034657;28;20172;-76
2023/05/26 02:49:06;;;;;;;83.80;2.53;;;16.60;46.10;;;;;;5034607;28;20183;-76
2023/05/26 02:51:33;;;;;;;83.37;2.67;;;16.40;45.90;;;;;;5034572;28;20582;-77
2023/05/26 02:53:59;;;;;;;83.47;2.60;;;16.50;45.30;;;;;;5033819;28;20235;-78
2023/05/26 02:56:25;;;;;;;83.47;2.50;;;16.50;45.50;;;;;;5034094;28;20418;-76
2023/05/26 02:58:51;;;;;;;83.10;2.33;;;16.60;45.00;;;;;;5034220;28;20207;-76
2023/05/26 03:01:16;;;;;;;86.00;2.33;;;16.50;45.40;;;;;;5034092;28;20438;-77
2023/05/26 03:03:42;;;;;;;82.97;2.30;;;16.60;45.10;;;;;;5033496;28;20620;-76
2023/05/26 03:06:08;;;;;;;83.80;2.60;;;16.30;46.00;;;;;;5047658;28;20175;-77
2023/05/26 03:08:34;;;;;;;83.30;2.37;;;16.30;45.80;;;;;;5052806;28;20194;-77
2023/05/26 03:11:00;;;;;;;83.53;2.60;;;16.40;45.40;;;;;;5053836;28;20407;-77
2023/05/26 03:13:25;;;;;;;84.90;2.80;;;16.50;46.00;;;;;;5053155;28;20479;-76
2023/05/26 03:15:52;;;;;;;83.20;2.30;;;16.30;46.50;;;;;;5054125;28;20195;-77
2023/05/26 03:18:17;;;;;;;83.17;2.07;;;16.40;47.30;;;;;;5053996;28;20174;-76
2023/05/26 03:20:46;;;;;;;84.90;3.23;;;16.40;46.20;;;;;;5054189;28;20457;-76
2023/05/26 03:23:13;;;;;;;85.20;3.33;;;16.40;46.10;;;;;;5053023;28;20293;-77
2023/05/26 03:25:38;;;;;;;88.00;2.90;;;16.40;46.30;;;;;;5053628;28;20774;-76
2023/05/26 03:28:04;;;;;;;85.07;3.33;;;16.50;46.30;;;;;;5053455;28;20410;-77
2023/05/26 03:30:29;;;;;;;84.57;3.30;;;16.60;45.80;;;;;;5054370;28;20194;-76
2023/05/26 03:32:55;;;;;;;84.37;2.67;;;16.60;45.70;;;;;;5053315;28;20639;-76
2023/05/26 03:35:21;;;;;;;83.47;2.40;;;16.70;45.70;;;;;;5054740;28;20179;-76
2023/05/26 03:37:46;;;;;;;83.77;2.70;;;16.70;45.20;;;;;;5054277;28;20635;-77
2023/05/26 03:40:12;;;;;;;83.83;2.47;;;16.80;43.90;;;;;;5053576;28;20176;-77
2023/05/26 03:42:38;;;;;;;84.57;2.83;;;16.70;44.50;;;;;;5053474;28;20569;-76
2023/05/26 03:45:04;;;;;;;85.10;2.87;;;16.70;44.30;;;;;;5054448;28;20635;-76
2023/05/26 03:47:30;;;;;;;83.80;2.70;;;16.60;45.90;;;;;;5054374;28;20171;-77
2023/05/26 03:49:55;;;;;;;84.30;2.63;;;16.60;45.50;;;;;;5053675;28;20413;-77
2023/05/26 03:52:21;;;;;;;84.67;3.10;;;16.60;45.70;;;;;;5053575;28;20433;-77
2023/05/26 03:54:46;;;;;;;83.83;2.67;;;16.50;46.00;;;;;;5053311;28;20221;-77
2023/05/26 03:57:12;;;;;;;83.57;2.33;;;16.50;46.20;;;;;;5054150;28;20180;-77
2023/05/26 03:59:38;;;;;;;83.80;2.57;;;16.60;45.50;;;;;;5053816;28;20176;-77
2023/05/26 04:02:03;;;;;;;84.93;3.03;;;16.60;45.90;;;;;;5053523;28;20666;-77
2023/05/26 04:04:29;;;;;;;83.67;2.27;;;16.50;45.80;;;;;;5052615;28;20210;-76
2023/05/26 04:06:55;;;;;;;84.30;2.60;;;16.40;46.10;;;;;;5032985;28;20888;-76
2023/05/26 04:09:20;;;;;;;83.77;2.70;;;16.40;45.50;;;;;;5032880;28;20168;-76
2023/05/26 04:11:46;;;;;;;84.00;2.67;;;16.40;45.90;;;;;;5033208;28;20327;-76
2023/05/26 04:14:12;;;;;;;87.80;3.00;;;16.40;46.40;;;;;;5032203;28;20182;-76
2023/05/26 04:16:38;;;;;;;83.87;2.53;;;16.40;46.40;;;;;;5032907;28;20418;-76
2023/05/26 04:19:03;;;;;;;83.50;2.27;;;16.50;45.60;;;;;;5032939;28;20180;-78
2023/05/26 04:21:30;;;;;;;83.90;2.70;;;16.50;46.00;;;;;;5032754;28;20714;-76
2023/05/26 04:23:56;;;;;;;84.33;2.30;;;16.40;46.10;;;;;;5031859;28;20246;-77
2023/05/26 04:26:21;;;;;;;83.47;2.47;;;16.50;46.30;;;;;;5032961;28;20419;-77
2023/05/26 04:28:48;;;;;;;83.27;2.10;;;16.40;47.60;;;;;;5031368;28;20196;-76
2023/05/26 04:31:20;;;;;;;83.87;2.50;;;15.00;44.70;;;;;;5032631;28;20260;-78
2023/05/26 04:33:46;;;;;;;84.50;2.80;;;16.60;46.00;;;;;;5030634;28;21022;-77
2023/05/26 04:36:13;;;;;;;83.50;2.37;;;16.50;45.90;;;;;;5032258;28;20497;-76
2023/05/26 04:38:41;;;;;;;84.20;2.60;;;16.80;45.40;;;;;;5032319;28;20176;-77
2023/05/26 04:41:07;;;;;;;83.53;2.33;;;16.60;45.00;;;;;;5032301;28;20399;-77
2023/05/26 04:43:35;;;;;;;84.20;2.47;;;16.60;46.20;;;;;;5031474;28;20933;-77
2023/05/26 04:46:02;;;;;;;84.40;2.90;;;16.90;45.40;;;;;;5032184;28;20172;-76
2023/05/26 04:48:28;;;;;;;84.60;2.87;;;16.80;45.20;;;;;;5032711;28;20446;-77
2023/05/26 04:50:54;;;;;;;84.07;2.80;;;17.00;44.50;;;;;;5032901;28;20403;-77
2023/05/26 04:53:20;;;;;;;83.93;2.60;;;17.10;44.30;;;;;;5031638;28;20505;-76
2023/05/26 04:55:47;;;;;;;84.23;2.90;;;17.10;43.10;;;;;;5032051;28;20829;-77
2023/05/26 04:58:12;;;;;;;83.87;2.63;;;17.40;41.70;;;;;;5032000;28;20582;-78
2023/05/26 05:00:38;;;;;;;87.53;3.70;;;17.40;41.60;;;;;;5030857;28;20446;-77
2023/05/26 05:03:04;;;;;;;83.90;2.53;;;17.30;43.20;;;;;;5031263;28;20482;-76
2023/05/26 05:05:30;;;;;;;84.23;2.90;;;17.30;42.50;;;;;;5032199;28;20272;-76
2023/05/26 05:07:56;;;;;;;84.47;2.87;;;17.50;41.00;;;;;;5032186;28;20873;-77
2023/05/26 05:10:21;;;;;;;84.00;2.53;;;17.60;41.90;;;;;;5031864;28;20196;-76
2023/05/26 05:12:47;;;;;;;83.77;2.57;;;17.60;42.50;;;;;;5031049;28;20287;-77
2023/05/26 05:15:13;;;;;;;84.17;2.87;;;17.60;42.10;;;;;;5031833;28;20177;-78
2023/05/26 05:17:38;;;;;;;84.50;3.00;;;17.70;40.20;;;;;;5031727;28;20172;-76
2023/05/26 05:20:06;;;;;;;85.33;3.00;;;17.80;40.20;;;;;;5031868;28;20252;-76
2023/05/26 05:22:32;;;;;;;85.87;3.17;;;18.00;39.50;;;;;;5031030;28;20217;-76
2023/05/26 05:24:57;;;;;;;83.80;2.50;;;17.90;40.50;;;;;;5031859;28;20404;-77
2023/05/26 05:27:23;;;;;;;84.00;2.70;;;17.90;40.60;;;;;;5031750;28;20718;-77
2023/05/26 05:29:49;;;;;;;84.90;2.80;;;17.80;40.80;;;;;;5031845;28;20170;-76
2023/05/26 05:32:14;;;;;;;85.47;3.17;;;17.90;39.70;;;;;;5031850;28;20659;-76
2023/05/26 05:34:40;;;;;;;83.77;2.53;;;18.00;39.80;;;;;;5030914;28;20178;-76
2023/05/26 05:37:06;;;;;;;83.70;2.60;;;18.00;41.00;;;;;;5031690;28;20177;-76
2023/05/26 05:39:31;;;;;;;84.83;2.57;;;18.10;42.20;;;;;;5031692;28;20181;-78
2023/05/26 05:41:57;;;;;;;85.20;2.70;;;18.20;39.20;;;;;;5031430;28;20246;-76
2023/05/26 05:44:22;;;;;;;85.53;3.47;;;18.00;38.90;;;;;;5031120;28;20215;-76
2023/05/26 05:46:48;;;;;;;84.47;3.23;;;18.40;36.30;;;;;;5031594;28;20179;-76
2023/05/26 05:49:14;;;;;;;86.20;3.80;;;18.10;38.90;;;;;;5031256;28;20205;-77
2023/05/26 05:51:39;;;;;;;83.90;2.67;;;18.40;38.90;;;;;;5031530;28;20225;-76
2023/05/26 05:54:05;;;;;;;84.67;3.17;;;17.80;37.40;;;;;;5030690;28;20226;-76
2023/05/26 05:56:31;;;;;;;84.60;3.23;;;17.50;37.50;;;;;;5031130;28;20252;-76
2023/05/26 05:58:56;;;;;;;84.50;3.00;;;17.60;39.40;;;;;;5031072;28;20229;-76
2023/05/26 06:01:22;;;;;;;83.80;2.73;;;18.00;39.80;;;;;;5031031;28;20220;-78
2023/05/26 06:03:47;;;;;;;84.27;2.80;;;18.30;39.70;;;;;;5030412;28;20200;-76
2023/05/26 06:06:13;;;;;;;83.30;2.53;;;18.40;37.40;;;;;;5031111;28;20196;-77
2023/05/26 06:08:39;;;;;;;83.37;2.60;;;18.40;37.60;;;;;;5031357;28;20174;-77
2023/05/26 06:11:06;;;;;;;83.57;2.73;;;18.60;35.60;;;;;;5030842;28;20172;-77
2023/05/26 06:13:31;;;;;;;83.57;2.63;;;18.70;37.60;;;;;;5031185;28;20587;-76
2023/05/26 06:15:57;;;;;;;83.87;2.90;;;18.50;35.40;;;;;;5035605;28;20895;-76
2023/05/26 06:18:22;;;;;;;83.77;2.57;;;17.80;36.60;;;;;;5035034;28;20211;-77
2023/05/26 06:20:48;;;;;;;83.93;2.73;;;17.70;39.30;;;;;;5034974;28;20176;-76
2023/05/26 06:23:13;;;;;;;84.03;2.87;;;17.70;38.30;;;;;;5034005;28;20253;-76
2023/05/26 06:25:39;;;;;;;84.67;2.87;;;18.10;37.00;;;;;;5035009;28;20550;-76
2023/05/26 06:28:05;;;;;;;83.20;2.40;;;18.20;38.00;;;;;;5034974;28;20173;-77
2023/05/26 06:30:30;;;;;;;83.20;2.40;;;18.10;34.90;;;;;;5035207;28;20252;-76
2023/05/26 06:32:56;;;;;;;83.57;2.60;;;18.30;37.80;;;;;;5032881;28;20400;-76
2023/05/26 06:35:23;;;;;;;83.90;2.90;;;18.80;36.70;;;;;;5034506;28;20196;-77
2023/05/26 06:37:49;;;;;;;85.53;2.90;;;18.60;34.90;;;;;;5034720;28;20260;-77
2023/05/26 06:40:15;;;;;;;196.03;3.37;;;18.10;36.70;;;;;;5034691;28;20545;-76
2023/05/26 06:42:41;;;;;;;83.57;2.83;;;18.60;35.80;;;;;;5033925;28;20484;-76
2023/05/26 06:45:07;;;;;;;83.70;2.70;;;19.00;36.30;;;;;;5034507;28;20836;-78
2023/05/26 06:47:32;;;;;;;85.83;3.60;;;19.20;34.60;;;;;;5034637;28;20500;-76
2023/05/26 06:49:58;;;;;;;83.77;2.80;;;19.40;34.60;;;;;;5034425;28;20653;-76
2023/05/26 06:52:24;;;;;;;89.60;3.03;;;19.10;34.20;;;;;;5034499;28;20222;-77
2023/05/26 06:54:49;;;;;;;83.23;2.50;;;19.30;34.60;;;;;;5033603;28;20184;-77
2023/05/26 06:57:16;;;;;;;84.23;3.20;;;18.70;34.50;;;;;;5034307;28;20177;-76
2023/05/26 06:59:42;;;;;;;84.80;2.53;;;18.50;35.90;;;;;;5034391;28;20183;-76
2023/05/26 07:02:07;;;;;;;83.97;2.77;;;19.00;34.70;;;;;;5034214;28;20448;-77
2023/05/26 07:04:33;;;;;;;84.20;3.00;;;19.30;33.40;;;;;;5033432;28;20212;-76
2023/05/26 07:06:59;;;;;;;84.10;3.07;;;18.70;34.10;;;;;;5034358;28;20171;-76
2023/05/26 07:09:24;;;;;;;84.80;3.37;;;19.20;34.30;;;;;;5034000;28;20706;-76
2023/05/26 07:11:50;;;;;;;82.70;2.60;;;19.40;31.70;;;;;;5034154;28;20207;-76
2023/05/26 07:14:16;;;;;;;86.20;3.00;;;19.10;31.50;;;;;;5033541;28;20181;-77
2023/05/26 07:16:41;;;;;;;83.13;2.93;;;19.40;32.50;;;;;;5034098;28;20711;-76
2023/05/26 07:19:07;;;;;;;83.63;3.23;;;19.60;32.90;;;;;;5033025;28;20544;-77
2023/05/26 07:21:33;;;;;;;82.87;2.80;;;19.90;32.20;;;;;;5034015;28;20199;-76
2023/05/26 07:23:58;;;;;;;83.23;2.87;;;20.10;31.10;;;;;;5032394;28;20210;-76
2023/05/26 07:26:24;;;;;;;83.17;2.83;;;20.20;30.40;;;;;;5033568;28;20634;-76
2023/05/26 07:28:50;;;;;;;83.50;2.93;;;19.50;32.10;;;;;;5033986;28;20174;-78
2023/05/26 07:31:17;;;;;;;83.13;2.90;;;19.70;32.50;;;;;;5033714;28;20177;-77
2023/05/26 07:33:43;;;;;;;82.80;2.80;;;19.40;31.50;;;;;;5032950;28;20448;-76
2023/05/26 07:36:08;;;;;;;83.20;2.63;;;19.00;32.80;;;;;;5033775;28;20446;-77
2023/05/26 07:38:34;;;;;;;82.30;2.47;;;19.00;32.30;;;;;;5033930;28;20174;-76
2023/05/26 07:41:00;;;;;;;83.30;2.97;;;18.80;34.00;;;;;;5033768;28;20182;-76
2023/05/26 07:43:26;;;;;;;82.77;2.83;;;19.40;33.00;;;;;;5031593;28;20203;-76
2023/05/26 07:45:51;;;;;;;82.47;3.00;;;19.40;32.70;;;;;;5033739;28;20174;-76
2023/05/26 07:48:17;;;;;;;82.27;2.50;;;19.60;32.40;;;;;;5033255;28;20164;-77
2023/05/26 07:50:43;;;;;;;82.37;2.70;;;19.80;30.90;;;;;;5033517;28;20661;-76
2023/05/26 07:53:08;;;;;;;83.27;2.80;;;19.50;31.50;;;;;;5032570;28;20226;-76
2023/05/26 07:55:34;;;;;;;81.93;2.40;;;20.10;33.10;;;;;;5033457;28;20710;-76
2023/05/26 07:58:00;;;;;;;82.70;2.97;;;19.80;32.10;;;;;;5033606;28;20210;-76
2023/05/26 08:00:25;;;;;;;83.30;2.80;;;19.30;33.00;;;;;;5033450;28;20201;-76
2023/05/26 08:02:52;;;;;;;82.73;2.93;;;19.10;32.50;;;;;;5032092;28;20273;-76
2023/05/26 08:05:17;;;;;;;85.20;2.93;;;18.80;32.70;;;;;;5033326;28;20202;-76
2023/05/26 08:07:43;;;;;;;83.03;3.07;;;18.90;33.50;;;;;;5031910;28;20420;-76
2023/05/26 08:10:09;;;;;;;82.13;2.60;;;19.40;33.10;;;;;;5032833;28;20632;-76
2023/05/26 08:12:35;;;;;;;83.47;3.60;;;20.00;32.30;;;;;;5032282;28;20690;-77
2023/05/26 08:15:11;;;;;;;82.00;2.50;;;20.40;32.10;;;;;;5033115;28;20436;-77
2023/05/26 08:17:36;;;;;;;82.37;2.60;;;18.80;28.40;;;;;;5032990;28;20260;-76
2023/05/26 08:20:02;;;;;;;82.27;2.60;;;20.30;31.80;;;;;;5031615;28;20509;-76
2023/05/26 08:22:28;;;;;;;82.40;2.53;;;19.70;32.20;;;;;;5032710;28;20237;-79
2023/05/26 08:24:53;;;;;;;81.87;2.60;;;19.30;32.80;;;;;;5032157;28;20917;-77
2023/05/26 08:27:19;;;;;;;81.97;2.57;;;19.40;32.70;;;;;;5032682;28;20195;-76
2023/05/26 08:29:45;;;;;;;81.77;2.43;;;20.00;33.30;;;;;;5032714;28;20204;-77
2023/05/26 08:32:10;;;;;;;81.83;2.40;;;20.40;31.10;;;;;;5031370;28;20283;-77
2023/05/26 08:34:36;;;;;;;82.23;2.83;;;20.90;30.00;;;;;;5030554;28;20169;-77
2023/05/26 08:37:01;;;;;;;82.80;3.27;;;21.00;29.90;;;;;;5031071;28;20638;-76
2023/05/26 08:39:27;;;;;;;81.50;2.20;;;20.70;29.80;;;;;;5032652;28;20181;-77
2023/05/26 08:42:00;;;;;;;81.87;2.63;;;20.30;30.60;;;;;;5032434;28;20190;-76
2023/05/26 08:44:26;;;;;;;83.50;3.40;;;20.50;31.70;;;;;;5031880;28;20216;-77
2023/05/26 08:46:55;;;;;;;82.13;2.97;;;20.70;29.50;;;;;;5032277;28;20400;-78
2023/05/26 08:49:22;;;;;;;81.57;2.30;;;20.70;30.50;;;;;;5038387;28;20176;-76
2023/05/26 08:51:58;;;;;;;81.57;2.40;;;21.40;30.90;;;;;;5051919;28;20435;-77
2023/05/26 08:54:24;;;;;;;81.30;2.50;;;21.50;28.00;;;;;;5030522;28;20790;-77
2023/05/26 08:56:50;;;;;;;81.83;2.60;;;20.80;29.10;;;;;;5036916;28;20449;-77
2023/05/26 08:59:18;;;;;;;81.87;2.70;;;20.30;30.20;;;;;;5052173;28;20424;-76
2023/05/26 09:01:43;;;;;;;81.40;2.50;;;20.80;29.90;;;;;;5051909;28;20210;-76
2023/05/26 09:04:09;;;;;;;82.30;2.77;;;21.20;29.80;;;;;;5051162;28;20990;-76
2023/05/26 09:06:36;;;;;;;81.60;2.73;;;21.30;29.60;;;;;;5037049;28;20174;-77
2023/05/26 09:09:04;;;;;;;82.27;2.90;;;21.70;29.10;;;;;;5032023;28;20258;-77
2023/05/26 09:11:30;;;;;;;94.50;3.20;;;21.20;29.10;;;;;;5031816;28;20415;-77
2023/05/26 09:13:57;;;;;;;87.90;3.00;;;21.30;30.30;;;;;;5031374;28;20994;-76
2023/05/26 09:16:27;;;;;;;82.20;2.80;;;22.30;29.30;;;;;;5030966;28;20941;-79
2023/05/26 09:18:57;;;;;;;82.23;3.10;;;21.60;27.60;;;;;;5030756;28;20855;-76
2023/05/26 09:21:24;;;;;;;82.50;3.13;;;21.10;28.80;;;;;;5031625;28;20426;-76
2023/05/26 09:23:55;;;;;;;81.97;2.77;;;21.60;27.50;;;;;;5047416;28;20493;-77
2023/05/26 09:26:37;;;;;;;82.87;3.10;;;21.90;28.90;;;;;;5051667;28;20561;-76
2023/05/26 09:29:05;;;;;;;82.63;2.70;;;22.60;27.80;;;;;;5051649;28;20901;-78
2023/05/26 09:31:48;;;;;;;81.10;2.60;;;22.80;27.10;;;;;;5051424;28;20436;-77
2023/05/26 09:34:17;;;;;;;81.57;2.83;;;23.10;26.20;;;;;;5049978;28;20410;-77
2023/05/26 09:36:43;;;;;;;81.70;2.60;;;23.50;26.10;;;;;;5050978;28;20941;-76
2023/05/26 09:39:12;;;;;;;82.00;2.70;;;23.90;24.90;;;;;;5051598;28;20421;-76
2023/05/26 09:41:39;;;;;;;81.43;2.70;;;24.00;26.60;;;;;;5051452;28;20875;-77
2023/05/26 09:44:19;;;;;;;81.20;2.47;;;24.20;25.20;;;;;;5050420;28;20494;-77
2023/05/26 09:46:46;;;;;;;81.10;2.50;;;24.30;26.10;;;;;;5050982;28;20405;-77
2023/05/26 09:49:13;;;;;;;81.37;3.00;;;24.30;25.40;;;;;;5050770;28;20895;-77
2023/05/26 09:51:42;;;;;;;81.63;3.03;;;23.70;26.80;;;;;;5051042;28;20926;-77
2023/05/26 09:54:12;;;;;;;80.77;2.40;;;23.40;26.20;;;;;;5050568;28;20410;-76
2023/05/26 09:56:55;;;;;;;81.40;2.90;;;23.40;24.80;;;;;;5049735;28;20424;-78
2023/05/26 09:59:22;;;;;;;81.00;2.60;;;23.20;26.20;;;;;;5051117;28;20760;-76
2023/05/26 10:01:49;;;;;;;81.10;2.83;;;23.50;26.20;;;;;;5050900;28;20455;-77
2023/05/26 10:04:16;;;;;;;80.43;2.13;;;23.90;26.30;;;;;;5050308;28;20551;-76
2023/05/26 10:06:43;;;;;;;80.60;2.53;;;24.30;25.60;;;;;;5050995;28;20493;-76
2023/05/26 10:09:10;;;;;;;80.67;2.80;;;24.20;24.00;;;;;;5051085;28;20466;-76
2023/05/26 10:11:42;;;;;;;81.67;3.00;;;23.40;26.00;;;;;;5050796;28;20858;-76
2023/05/26 10:14:08;;;;;;;81.30;3.00;;;24.10;27.70;;;;;;5050239;28;20544;-77
2023/05/26 10:16:34;;;;;;;81.87;2.97;;;24.60;25.70;;;;;;5050951;28;20488;-76
2023/05/26 10:19:00;;;;;;;96.40;3.00;;;23.70;24.70;;;;;;5050937;28;20174;-78
2023/05/26 10:21:31;;;;;;;81.70;2.97;;;23.80;26.40;;;;;;5049566;28;20434;-77
2023/05/26 10:24:25;;;;;;;80.50;2.50;;;24.40;25.50;;;;;;5049931;28;20187;-77
2023/05/26 10:27:10;;;;;;;81.10;2.73;;;25.10;23.90;;;;;;5050891;28;20425;-77
2023/05/26 10:29:58;;;;;;;79.67;2.23;;;25.20;24.80;;;;;;5051210;28;20441;-78
2023/05/26 10:32:45;;;;;;;79.77;2.20;;;25.50;23.00;;;;;;5050779;28;20453;-76
2023/05/26 10:35:54;;;;;;;79.80;2.63;;;24.70;23.40;;;;;;5050667;28;20408;-76
2023/05/26 10:38:25;;;;;;;86.97;2.60;;;24.40;24.90;;;;;;4969677;28;20422;-76
2023/05/26 10:40:51;;;;;;;80.60;2.70;;;25.20;23.90;;;;;;4969819;28;20429;-77
2023/05/26 10:43:24;;;;;;;80.80;3.00;;;25.50;23.00;;;;;;4968696;28;20466;-77
2023/05/26 10:46:03;;;;;;;79.70;2.43;;;25.10;22.90;;;;;;4969651;28;20512;-78
2023/05/26 10:48:40;;;;;;;81.93;3.00;;;25.80;23.90;;;;;;4969577;28;20432;-77
2023/05/26 10:51:36;;;;;;;79.67;2.50;;;25.60;22.10;;;;;;4969765;28;20434;-77
2023/05/26 10:54:18;;;;;;;80.00;2.93;;;26.20;22.90;;;;;;4964259;28;20430;-77
2023/05/26 10:56:48;;;;;;;80.40;2.87;;;26.70;22.60;;;;;;4969645;28;20816;-77
2023/05/26 10:59:33;;;;;;;79.97;2.70;;;26.30;23.30;;;;;;4970709;28;20449;-77
2023/05/26 11:02:04;;;;;;;79.37;2.57;;;26.20;23.50;;;;;;4972879;28;20453;-77
2023/05/26 11:04:46;;;;;;;79.07;2.30;;;26.10;22.90;;;;;;4956297;28;20465;-78
2023/05/26 11:07:16;;;;;;;79.90;2.77;;;26.70;24.20;;;;;;4956799;28;20536;-77
2023/05/26 11:10:12;;;;;;;79.40;2.77;;;27.10;23.50;;;;;;4956793;28;20422;-77
2023/05/26 11:12:51;;;;;;;79.30;2.50;;;25.50;22.20;;;;;;4975351;28;20440;-76
2023/05/26 11:15:33;;;;;;;79.60;2.70;;;25.00;22.20;;;;;;5054187;28;20412;-77
2023/05/26 11:18:06;;;;;;;79.57;2.57;;;25.50;25.20;;;;;;5053659;28;20441;-77
2023/05/26 11:20:32;;;;;;;80.17;2.73;;;26.30;22.10;;;;;;5054047;28;20402;-77
2023/05/26 11:22:58;;;;;;;79.00;2.70;;;26.90;22.10;;;;;;5053077;28;20512;-77
2023/05/26 11:25:25;;;;;;;79.27;2.60;;;26.90;20.00;;;;;;5052572;28;20426;-77
2023/05/26 11:27:51;;;;;;;79.23;2.40;;;26.70;21.20;;;;;;5053845;28;20168;-76
2023/05/26 11:30:18;;;;;;;78.77;2.27;;;26.70;20.60;;;;;;5053559;28;20402;-78
2023/05/26 11:32:51;;;;;;;79.07;2.37;;;26.80;22.50;;;;;;5052808;28;20223;-79
2023/05/26 11:35:27;;;;;;;78.67;2.23;;;28.70;18.50;;;;;;5053703;28;20405;-78
2023/05/26 11:37:54;;;;;;;78.67;2.20;;;29.30;18.50;;;;;;5053921;28;20410;-78
2023/05/26 11:40:20;;;;;;;78.80;2.50;;;30.20;18.70;;;;;;5053586;28;20905;-77
2023/05/26 11:42:51;;;;;;;78.17;2.17;;;31.80;16.60;;;;;;5051197;28;20480;-77
2023/05/26 11:45:17;;;;;;;78.77;2.70;;;29.40;14.60;;;;;;5053590;28;20546;-79
2023/05/26 11:47:42;;;;;;;78.10;2.30;;;33.30;14.20;;;;;;5053269;28;20417;-78
2023/05/26 11:50:09;;;;;;;77.13;2.00;;;33.20;13.20;;;;;;5053367;28;20172;-78
2023/05/26 11:52:41;;;;;;;79.10;2.50;;;33.70;13.50;;;;;;5052547;28;20207;-76
2023/05/26 11:55:11;;;;;;;78.20;2.43;;;33.60;13.00;;;;;;5053286;28;20386;-76
2023/05/26 11:57:36;;;;;;;78.60;2.63;;;33.20;12.70;;;;;;5053065;28;20399;-76
2023/05/26 12:00:10;;;;;;;78.17;3.23;;;31.90;13.60;;;;;;5053047;28;20468;-76
2023/05/26 12:02:37;;;;;;;77.07;2.10;;;30.10;17.40;;;;;;5052296;28;20327;-75
2023/05/26 12:05:19;;;;;;;76.20;2.37;;;30.60;17.60;;;;;;5052740;28;20454;-76
2023/05/26 12:07:59;;;;;;;78.00;2.20;;;31.70;16.50;;;;;;5052886;28;20406;-75
2023/05/26 12:10:28;;;;;;;76.27;2.27;;;31.30;14.30;;;;;;5052060;28;20410;-76
2023/05/26 12:12:54;;;;;;;75.70;2.30;;;30.70;17.30;;;;;;5052362;28;20730;-76
2023/05/26 12:15:20;;;;;;;75.73;2.10;;;32.10;15.30;;;;;;5053057;28;20414;-76
2023/05/26 12:17:47;;;;;;;75.87;2.50;;;33.80;13.50;;;;;;5052720;28;20259;-76
2023/05/26 12:20:23;;;;;;;75.57;2.20;;;35.10;13.10;;;;;;5052357;28;20410;-76
2023/05/26 12:23:01;;;;;;;74.87;2.33;;;35.70;11.30;;;;;;5052003;28;20499;-77
2023/05/26 12:25:32;;;;;;;81.20;2.50;;;33.70;12.30;;;;;;5052602;28;20972;-76
2023/05/26 12:27:58;;;;;;;77.40;2.60;;;33.40;13.50;;;;;;5052558;28;20977;-76
2023/05/26 12:30:28;;;;;;;74.43;2.17;;;34.00;12.10;;;;;;5052575;28;20406;-76
2023/05/26 12:32:54;;;;;;;74.50;2.40;;;34.50;12.50;;;;;;5051729;28;20868;-76
2023/05/26 12:35:20;;;;;;;72.60;2.57;;;33.30;12.20;;;;;;5052483;28;20411;-77
2023/05/26 12:37:45;;;;;;;73.20;2.20;;;32.30;13.40;;;;;;5052177;28;20259;-76
2023/05/26 12:40:11;;;;;;;70.33;2.10;;;33.40;14.50;;;;;;5052495;28;20175;-76